Flight Track Log - Related Links

Times and Time Zones

All times are in EDT time to prevent confusion due to time zone crossing. See the N1803M flight status page for this flight to view local times or setup timezone preferences in your user account.

Time Position Orientation Groundspeed Altitude Reporting Facility
EDT Latitude Longitude Course Direction KTS MPH feet Rate Location/Type
Thu 07:53:14 PM 41.1453 -85.0275 164° South 108 124 3,700  Level Chicago Center
Thu 07:54:16 PM 41.1211 -85.0200 167° South 98 113 4,300 629 Climbing Chicago Center
Thu 07:55:18 PM 41.0919 -85.0111 167° South 92 106 5,000 339 Climbing Chicago Center
Thu 07:56:20 PM 41.0631 -85.0044 170° South 96 110 5,000  Level Chicago Center
Thu 07:57:00 PM 40.8963 -85.0631 165° South  Level Estimated
Thu 07:57:22 PM 41.0264 -84.9942 168° South 116 133 5,000  Level Chicago Center
Thu 07:58:00 PM 40.8611 -85.0496 164° South  Level FlightAware Approximate
Thu 07:58:24 PM 40.9889 -84.9872 172° South 129 148 5,000  Level Chicago Center
Thu 07:59:26 PM 40.9542 -84.9742 164° South 131 151 5,000  Level Chicago Center
Thu 08:00:28 PM 40.9194 -84.9619 165° South 130 150 5,000  Level Chicago Center
Thu 08:01:30 PM 40.8753 -84.9569 175° South 130 150 5,000  Level Chicago Center
Thu 08:02:32 PM 40.8392 -84.9467 168° South 132 152 5,000  Level Chicago Center
Thu 08:03:35 PM 40.8036 -84.9372 169° South 132 152 5,000  Level Chicago Center
Thu 08:04:37 PM 40.7697 -84.9256 165° South 129 148 5,000  Level Chicago Center
Thu 08:05:39 PM 40.7361 -84.9136 165° South 127 146 5,000  Level Chicago Center
Thu 08:06:41 PM 40.7019 -84.9017 165° South 126 145 5,000  Level Chicago Center
Thu 08:07:43 PM 40.6594 -84.8925 171° South 128 147 5,000  Level Chicago Center
Thu 08:08:45 PM 40.6242 -84.8844 170° South 128 147 5,000  Level Chicago Center
Thu 08:09:47 PM 40.5889 -84.8744 168° South 129 148 5,000  Level Chicago Center
Thu 08:10:49 PM 40.5550 -84.8631 166° South 127 146 5,000  Level Chicago Center
Thu 08:11:51 PM 40.5206 -84.8511 165° South 128 147 5,000  Level Chicago Center
Thu 08:12:53 PM 40.4867 -84.8411 167° South 127 146 5,000  Level Chicago Center
Thu 08:13:55 PM 40.4467 -84.8275 165° South 125 144 5,000  Level Chicago Center
Thu 08:14:58 PM 40.4131 -84.8250 177° South 124 143 5,000  Level Chicago Center
Thu 08:15:29 PM 40.3956 -84.8203 168° South 123 142 5,000  Level Indianapolis Center
Thu 08:16:31 PM 40.3611 -84.8111 169° South 124 143 5,000  Level Indianapolis Center
Thu 08:17:28 PM 40.3256 -84.8003 167° South 125 144 5,000  Level Indianapolis Center
Thu 08:18:28 PM 40.2911 -84.7883 165° South 123 142 5,000  Level Indianapolis Center
Thu 08:19:29 PM 40.2583 -84.7794 168° South 126 145 5,000 -323 Level Indianapolis Center
Thu 08:20:38 PM 40.2181 -84.7656 165° South 128 147 4,300 -462 Descending Indianapolis Center
Thu 08:21:39 PM 40.1836 -84.7531 165° South 128 147 4,000 -159 Descending Indianapolis Center
Thu 08:22:31 PM 40.1525 -84.7458 170° South 126 145 4,000  Level Indianapolis Center
Thu 08:23:43 PM 40.1150 -84.7333 166° South 126 145 4,000  Level Indianapolis Center
Thu 08:24:33 PM 40.0853 -84.7250 168° South 123 142 4,000  Level Indianapolis Center
Thu 08:25:34 PM 40.0528 -84.7161 168° South 122 140 4,000  Level Indianapolis Center
Thu 08:26:34 PM 40.0200 -84.7072 168° South 121 139 4,000  Level Indianapolis Center
Thu 08:27:50 PM 39.9756 -84.6936 167° South 122 140 4,000  Level Indianapolis Center
Thu 08:28:36 PM 39.9503 -84.6889 172° South 123 142 4,000  Level Indianapolis Center
Thu 08:29:37 PM 39.9153 -84.6825 172° South 123 142 4,000  Level Indianapolis Center
Thu 08:30:37 PM 39.8825 -84.6736 168° South 124 143 4,000  Level Indianapolis Center
Thu 08:31:38 PM 39.8478 -84.6644 169° South 124 143 4,000  Level Indianapolis Center
Thu 08:32:39 PM 39.8131 -84.6553 169° South 125 144 4,000  Level Indianapolis Center
Thu 08:33:39 PM 39.7761 -84.6456 169° South 126 145 4,000  Level Indianapolis Center
Thu 08:34:34 PM 39.7475 -84.6378 168° South 126 145 4,000  Level Indianapolis Center
Thu 08:36:03 PM 39.7025 -84.6200 163° South 124 143 4,000  Level Indianapolis Center
Thu 08:36:42 PM 39.6764 -84.6136 169° South 124 143 4,000  Level Indianapolis Center
Thu 08:38:07 PM 39.6289 -84.5969 165° South 124 143 4,000  Level Indianapolis Center
Thu 08:39:08 PM 39.5956 -84.5861 166° South 125 144 4,000 -293 Level Indianapolis Center
Thu 08:40:10 PM 39.5608 -84.5750 166° South 125 144 3,400 -435 Descending Indianapolis Center
Thu 08:41:12 PM 39.5258 -84.5628 165° South 127 146 3,100 -194 Descending Indianapolis Center
Thu 08:42:14 PM 39.4922 -84.5486 162° South 128 147 3,000 -49 Descending Indianapolis Center
Thu 08:43:15 PM 39.4622 -84.5261 150° Southeast 126 145 3,000 -146 Level Indianapolis Center
Thu 08:44:17 PM 39.4283 -84.5006 150° Southeast 125 144 2,700 -290 Descending Indianapolis Center
Thu 08:46:00 PM 39.3743 -84.5185 166° South  Level Estimated
Thu 08:53:00 PM 39.3638 -84.5219 166° South  Level Estimated
Thu 08:54:00 PM 39.3638 -84.5219 166° South  Level Estimated

Login

Don't have an account? Register now (free) for customized features, flight alerts, and more!